PWSweather.com
Personal Weather Stations
Station Observations
NIGHT1
EastleighGB

EastleighGB

Lat: 50.966307, Lon: -1.380982

Elevation: 78

Station Type: Davis VP2 with daytime FARS

Latest ConditionsUpdated 3:55:00 AM GMT Monday, Feb 20, 2017
Currently Today's Max Today's Min Today's Average
Temperature 50.4°F10.2°C 50.5°F10.3°C 50.1°F10.1°C 50.4°F10.2°C
Dew Point 49.3°F9.6°C 49.4°F9.7°C 48.7°F9.3°C 49.1°F9.5°C
Winds 1.0 mph WSW1.6 kmh WSW 4.3 mph WSW6.9 kmh WSW - 2.7 mph 4.3 kmh
Wind Gusts 5.0 mph8.0 kmh 11.0 mph17.7 kmh - -
Humidity 96% 96% 95% 95%
Pressure 30.10 in1019.3 mb 30.15 in1021.0 mb 30.10 in1019.3 mb -
Hour Temp Dew Point Humidity Winds Wind Gusts Pressure Precip Precip Rate Daily Precip Total
03:55 AM 50.4°F10.2°C 49.3°F9.6°C 96% 1.0 mph WSW1.6 kmh WSW 5.0 mph8.0 kmh 30.10 in1019.3 mb 0.00 in0.0 mm 0.00 in0.0 mm 0.00 in0.0 mm
03:50 AM 50.3°F10.2°C 49.2°F9.6°C 96% 1.0 mph SW1.6 kmh SW 5.0 mph8.0 kmh 30.10 in1019.3 mb 0.00 in0.0 mm 0.00 in0.0 mm 0.00 in0.0 mm
03:45 AM 50.3°F10.2°C 49.2°F9.6°C 96% 1.0 mph SW1.6 kmh SW 5.0 mph8.0 kmh 30.10 in1019.3 mb 0.00 in0.0 mm 0.00 in0.0 mm 0.00 in0.0 mm
03:40 AM 50.3°F10.2°C 49.2°F9.6°C 96% 1.2 mph SW1.9 kmh SW 3.0 mph4.8 kmh 30.10 in1019.3 mb 0.00 in0.0 mm 0.00 in0.0 mm 0.00 in0.0 mm
03:35 AM 50.4°F10.2°C 49.3°F9.6°C 96% 1.7 mph WSW2.7 kmh WSW 4.0 mph6.4 kmh 30.10 in1019.3 mb 0.00 in0.0 mm 0.00 in0.0 mm 0.00 in0.0 mm
03:30 AM 50.4°F10.2°C 49.3°F9.6°C 96% 2.0 mph SW3.2 kmh SW 6.0 mph9.7 kmh 30.10 in1019.3 mb 0.00 in0.0 mm 0.00 in0.0 mm 0.00 in0.0 mm
03:25 AM 50.4°F10.2°C 49.3°F9.6°C 96% 2.0 mph WSW3.2 kmh WSW 7.0 mph11.3 kmh 30.10 in1019.3 mb 0.00 in0.0 mm 0.00 in0.0 mm 0.00 in0.0 mm
03:20 AM 50.4°F10.2°C 49.3°F9.6°C 96% 2.4 mph WSW3.9 kmh WSW 7.0 mph11.3 kmh 30.10 in1019.3 mb 0.00 in0.0 mm 0.00 in0.0 mm 0.00 in0.0 mm
03:15 AM 50.4°F10.2°C 49.3°F9.6°C 96% 2.7 mph WSW4.3 kmh WSW 7.0 mph11.3 kmh 30.10 in1019.3 mb 0.00 in0.0 mm 0.00 in0.0 mm 0.00 in0.0 mm
03:10 AM 50.4°F10.2°C 49.3°F9.6°C 96% 2.8 mph WSW4.5 kmh WSW 7.0 mph11.3 kmh 30.10 in1019.3 mb 0.00 in0.0 mm 0.00 in0.0 mm 0.00 in0.0 mm
03:05 AM 50.4°F10.2°C 49.3°F9.6°C 96% 3.0 mph WSW4.8 kmh WSW 9.0 mph14.5 kmh 30.11 in1019.6 mb 0.00 in0.0 mm 0.00 in0.0 mm 0.00 in0.0 mm
03:00 AM 50.5°F10.3°C 49.4°F9.7°C 96% 3.0 mph WSW4.8 kmh WSW 9.0 mph14.5 kmh 30.11 in1019.6 mb 0.00 in0.0 mm 0.00 in0.0 mm 0.00 in0.0 mm
02:55 AM 50.5°F10.3°C 49.4°F9.7°C 96% 2.8 mph WSW4.5 kmh WSW 7.0 mph11.3 kmh 30.11 in1019.6 mb 0.00 in0.0 mm 0.00 in0.0 mm 0.00 in0.0 mm
02:50 AM 50.5°F10.3°C 49.1°F9.5°C 95% 2.4 mph WSW3.9 kmh WSW 8.0 mph12.9 kmh 30.11 in1019.6 mb 0.00 in0.0 mm 0.00 in0.0 mm 0.00 in0.0 mm
02:45 AM 50.5°F10.3°C 49.1°F9.5°C 95% 2.2 mph WSW3.5 kmh WSW 8.0 mph12.9 kmh 30.11 in1019.6 mb 0.00 in0.0 mm 0.00 in0.0 mm 0.00 in0.0 mm
02:40 AM 50.5°F10.3°C 49.1°F9.5°C 95% 2.6 mph WSW4.2 kmh WSW 7.0 mph11.3 kmh 30.11 in1019.6 mb 0.00 in0.0 mm 0.00 in0.0 mm 0.00 in0.0 mm
02:35 AM 50.5°F10.3°C 49.1°F9.5°C 95% 3.0 mph WSW4.8 kmh WSW 7.0 mph11.3 kmh 30.11 in1019.6 mb 0.00 in0.0 mm 0.00 in0.0 mm 0.00 in0.0 mm
02:30 AM 50.5°F10.3°C 49.1°F9.5°C 95% 3.0 mph WSW4.8 kmh WSW 8.0 mph12.9 kmh 30.11 in1019.6 mb 0.00 in0.0 mm 0.00 in0.0 mm 0.00 in0.0 mm
02:25 AM 50.5°F10.3°C 49.1°F9.5°C 95% 3.0 mph WSW4.8 kmh WSW 8.0 mph12.9 kmh 30.12 in1020.0 mb 0.00 in0.0 mm 0.00 in0.0 mm 0.00 in0.0 mm
02:20 AM 50.5°F10.3°C 49.1°F9.5°C 95% 3.0 mph WSW4.8 kmh WSW 7.0 mph11.3 kmh 30.12 in1020.0 mb 0.00 in0.0 mm 0.00 in0.0 mm 0.00 in0.0 mm
02:15 AM 50.5°F10.3°C 49.1°F9.5°C 95% 3.0 mph WSW4.8 kmh WSW 8.0 mph12.9 kmh 30.12 in1020.0 mb 0.00 in0.0 mm 0.00 in0.0 mm 0.00 in0.0 mm
02:10 AM 50.5°F10.3°C 49.1°F9.5°C 95% 2.8 mph WSW4.5 kmh WSW 8.0 mph12.9 kmh 30.12 in1020.0 mb 0.00 in0.0 mm 0.00 in0.0 mm 0.00 in0.0 mm
02:05 AM 50.5°F10.3°C 49.1°F9.5°C 95% 2.6 mph WSW4.2 kmh WSW 8.0 mph12.9 kmh 30.12 in1020.0 mb 0.00 in0.0 mm 0.00 in0.0 mm 0.00 in0.0 mm
02:00 AM 50.5°F10.3°C 49.1°F9.5°C 95% 2.8 mph W4.5 kmh W 6.0 mph9.7 kmh 30.12 in1020.0 mb 0.00 in0.0 mm 0.00 in0.0 mm 0.00 in0.0 mm
01:55 AM 50.5°F10.3°C 49.1°F9.5°C 95% 3.2 mph W5.1 kmh W 6.0 mph9.7 kmh 30.12 in1020.0 mb 0.00 in0.0 mm 0.00 in0.0 mm 0.00 in0.0 mm
01:50 AM 50.5°F10.3°C 49.1°F9.5°C 95% 3.6 mph W5.8 kmh W 9.0 mph14.5 kmh 30.12 in1020.0 mb 0.00 in0.0 mm 0.00 in0.0 mm 0.00 in0.0 mm
01:45 AM 50.4°F10.2°C 49.0°F9.4°C 95% 3.7 mph W6.0 kmh W 9.0 mph14.5 kmh 30.12 in1020.0 mb 0.00 in0.0 mm 0.00 in0.0 mm 0.00 in0.0 mm
01:40 AM 50.4°F10.2°C 49.0°F9.4°C 95% 3.0 mph W4.8 kmh W 9.0 mph14.5 kmh 30.12 in1020.0 mb 0.00 in0.0 mm 0.00 in0.0 mm 0.00 in0.0 mm
01:35 AM 50.4°F10.2°C 49.0°F9.4°C 95% 2.2 mph WSW3.5 kmh WSW 9.0 mph14.5 kmh 30.12 in1020.0 mb 0.00 in0.0 mm 0.00 in0.0 mm 0.00 in0.0 mm
01:30 AM 50.4°F10.2°C 49.0°F9.4°C 95% 2.2 mph WSW3.5 kmh WSW 8.0 mph12.9 kmh 30.12 in1020.0 mb 0.00 in0.0 mm 0.00 in0.0 mm 0.00 in0.0 mm
01:25 AM 50.3°F10.2°C 48.9°F9.4°C 95% 2.7 mph WSW4.3 kmh WSW 7.0 mph11.3 kmh 30.12 in1020.0 mb 0.00 in0.0 mm 0.00 in0.0 mm 0.00 in0.0 mm
01:20 AM 50.3°F10.2°C 48.9°F9.4°C 95% 3.4 mph WSW5.5 kmh WSW 8.0 mph12.9 kmh 30.12 in1020.0 mb 0.00 in0.0 mm 0.00 in0.0 mm 0.00 in0.0 mm
01:15 AM 50.3°F10.2°C 48.9°F9.4°C 95% 4.2 mph WSW6.8 kmh WSW 8.0 mph12.9 kmh 30.13 in1020.3 mb 0.00 in0.0 mm 0.00 in0.0 mm 0.00 in0.0 mm
01:10 AM 50.4°F10.2°C 49.0°F9.4°C 95% 4.3 mph WSW6.9 kmh WSW 10.0 mph16.1 kmh 30.13 in1020.3 mb 0.00 in0.0 mm 0.00 in0.0 mm 0.00 in0.0 mm
01:05 AM 50.4°F10.2°C 49.0°F9.4°C 95% 4.0 mph WSW6.4 kmh WSW 10.0 mph16.1 kmh 30.14 in1020.7 mb 0.00 in0.0 mm 0.00 in0.0 mm 0.00 in0.0 mm
01:00 AM 50.4°F10.2°C 49.0°F9.4°C 95% 4.0 mph WSW6.4 kmh WSW 10.0 mph16.1 kmh 30.14 in1020.7 mb 0.00 in0.0 mm 0.00 in0.0 mm 0.00 in0.0 mm
12:55 AM 50.4°F10.2°C 49.0°F9.4°C 95% 3.4 mph W5.5 kmh W 11.0 mph17.7 kmh 30.14 in1020.7 mb 0.00 in0.0 mm 0.00 in0.0 mm 0.00 in0.0 mm
12:50 AM 50.4°F10.2°C 49.0°F9.4°C 95% 2.2 mph WSW3.5 kmh WSW 11.0 mph17.7 kmh 30.14 in1020.7 mb 0.00 in0.0 mm 0.00 in0.0 mm 0.00 in0.0 mm
12:45 AM 50.4°F10.2°C 49.0°F9.4°C 95% 1.8 mph WSW2.9 kmh WSW 8.0 mph12.9 kmh 30.14 in1020.7 mb 0.00 in0.0 mm 0.00 in0.0 mm 0.00 in0.0 mm
12:40 AM 50.3°F10.2°C 48.9°F9.4°C 95% 2.4 mph WSW3.9 kmh WSW 7.0 mph11.3 kmh 30.14 in1020.7 mb 0.00 in0.0 mm 0.00 in0.0 mm 0.00 in0.0 mm
12:35 AM 50.3°F10.2°C 48.9°F9.4°C 95% 2.7 mph WSW4.3 kmh WSW 7.0 mph11.3 kmh 30.15 in1021.0 mb 0.00 in0.0 mm 0.00 in0.0 mm 0.00 in0.0 mm
12:30 AM 50.3°F10.2°C 48.9°F9.4°C 95% 2.8 mph WSW4.5 kmh WSW 7.0 mph11.3 kmh 30.15 in1021.0 mb 0.00 in0.0 mm 0.00 in0.0 mm 0.00 in0.0 mm
12:25 AM 50.3°F10.2°C 48.9°F9.4°C 95% 3.1 mph WSW5.0 kmh WSW 9.0 mph14.5 kmh 30.15 in1021.0 mb 0.00 in0.0 mm 0.00 in0.0 mm 0.00 in0.0 mm
12:20 AM 50.2°F10.1°C 48.8°F9.3°C 95% 3.1 mph WSW5.0 kmh WSW 9.0 mph14.5 kmh 30.15 in1021.0 mb 0.00 in0.0 mm 0.00 in0.0 mm 0.00 in0.0 mm
12:15 AM 50.2°F10.1°C 48.8°F9.3°C 95% 3.0 mph WSW4.8 kmh WSW 7.0 mph11.3 kmh 30.15 in1021.0 mb 0.00 in0.0 mm 0.00 in0.0 mm 0.00 in0.0 mm
12:10 AM 50.2°F10.1°C 48.8°F9.3°C 95% 3.0 mph WSW4.8 kmh WSW 8.0 mph12.9 kmh 30.15 in1021.0 mb 0.00 in0.0 mm 0.00 in0.0 mm 0.00 in0.0 mm
12:05 AM 50.1°F10.1°C 48.7°F9.3°C 95% 2.7 mph WSW4.3 kmh WSW 8.0 mph12.9 kmh 30.15 in1021.0 mb 0.00 in0.0 mm 0.00 in0.0 mm 0.00 in0.0 mm
12:00 AM 50.1°F10.1°C 48.7°F9.3°C 95% 1.7 mph WSW2.7 kmh WSW 9.0 mph14.5 kmh 30.15 in1021.0 mb 0.00 in0.0 mm 0.00 in0.0 mm 0.00 in0.0 mm